createdAt,value
2023-12-01T00:00:17.486Z,99663.34
2023-12-01T00:05:19.052Z,99663.44
2023-12-01T00:10:22.499Z,99666.22
2023-12-01T00:15:24.078Z,99670.41
2023-12-01T00:20:25.721Z,99668.88
2023-12-01T00:25:27.326Z,99671.81
2023-12-01T00:30:28.917Z,99677.03
2023-12-01T00:35:30.493Z,99682.22
2023-12-01T00:40:32.022Z,99678.16
2023-12-01T00:45:33.582Z,99673.59
2023-12-01T00:50:35.215Z,99667.22
2023-12-01T00:55:37.327Z,99677.94
2023-12-01T01:00:38.983Z,99682.91
2023-12-01T01:05:40.909Z,99685.34
2023-12-01T01:10:42.504Z,99694.78
2023-12-01T01:15:44.161Z,99695.34
2023-12-01T01:20:45.915Z,99691.78
2023-12-01T01:25:47.439Z,99699.50
2023-12-01T01:30:49.024Z,99701.63
2023-12-01T01:35:50.661Z,99708.75
2023-12-01T01:40:52.309Z,99703.13
2023-12-01T01:46:05.390Z,99701.03
2023-12-01T01:51:07.036Z,99704.41
2023-12-01T01:56:09.154Z,99715.25
2023-12-01T02:01:10.991Z,99725.41
2023-12-01T02:06:12.734Z,99722.66
2023-12-01T02:11:14.363Z,99710.44
2023-12-01T02:16:15.926Z,99714.78
2023-12-01T02:21:21.832Z,99714.31
2023-12-01T02:26:24.007Z,99711.09
2023-12-01T02:31:25.759Z,99723.09
2023-12-01T02:36:27.414Z,99718.84
2023-12-01T02:41:29.057Z,99723.94
2023-12-01T02:46:30.702Z,99736.59
2023-12-01T02:51:32.326Z,99731.69
2023-12-01T02:56:33.905Z,99747.28
2023-12-01T03:01:35.626Z,99745.91
2023-12-01T03:06:37.372Z,99745.88
2023-12-01T03:11:39.049Z,99737.22
2023-12-01T03:16:40.716Z,99727.72
2023-12-01T03:21:42.699Z,99743.22
2023-12-01T03:26:44.264Z,99742.06
2023-12-01T03:31:46.021Z,99741.38
2023-12-01T03:36:47.622Z,99745.69
2023-12-01T03:41:49.372Z,99748.97
2023-12-01T03:46:51.275Z,99750.06
2023-12-01T03:51:53.091Z,99758.97
2023-12-01T03:56:54.700Z,99757.22
2023-12-01T04:01:56.284Z,99757.19
2023-12-01T04:06:57.987Z,99752.38
2023-12-01T04:11:59.676Z,99761.03
2023-12-01T04:17:01.481Z,99768.81
2023-12-01T04:22:06.899Z,99778.63
2023-12-01T04:27:08.515Z,99784.00
2023-12-01T04:32:10.217Z,99789.09
2023-12-01T04:37:11.853Z,99790.22
2023-12-01T04:42:13.644Z,99790.94
2023-12-01T04:47:15.304Z,99782.75
2023-12-01T04:52:17.000Z,99792.25
2023-12-01T04:57:18.568Z,99796.72
2023-12-01T05:02:20.112Z,99794.25
2023-12-01T05:07:23.600Z,99809.81
2023-12-01T05:12:25.310Z,99803.50
2023-12-01T05:17:26.943Z,99806.91
2023-12-01T05:22:28.577Z,99817.50
2023-12-01T05:27:30.132Z,99814.78
2023-12-01T05:32:31.852Z,99815.41
2023-12-01T05:37:33.526Z,99814.63
2023-12-01T05:42:35.222Z,99822.06
2023-12-01T05:47:36.761Z,99831.22
2023-12-01T05:52:38.380Z,99840.97
2023-12-01T05:57:39.999Z,99845.84
2023-12-01T06:02:41.926Z,99849.78
2023-12-01T06:07:44.617Z,99848.69
2023-12-01T06:12:46.683Z,99850.09
2023-12-01T06:17:49.144Z,99859.41
2023-12-01T06:22:54.904Z,99874.44
2023-12-01T06:27:57.890Z,99883.28
2023-12-01T06:32:59.684Z,99882.63
2023-12-01T06:38:01.283Z,99879.72
2023-12-01T06:43:03.022Z,99889.91
2023-12-01T06:48:04.646Z,99892.75
2023-12-01T06:53:06.262Z,99901.75
2023-12-01T06:58:08.048Z,99903.00
2023-12-01T07:03:10.245Z,99904.91
2023-12-01T07:08:13.405Z,99905.28
2023-12-01T07:13:15.517Z,99910.28
2023-12-01T07:18:17.245Z,99916.19
2023-12-01T07:23:19.197Z,99920.53
2023-12-01T07:28:20.833Z,99911.97
2023-12-01T07:33:22.723Z,99913.88
2023-12-01T07:38:24.351Z,99919.69
2023-12-01T07:43:26.094Z,99925.81
2023-12-01T07:48:27.946Z,99921.91
2023-12-01T07:53:29.728Z,99931.94
2023-12-01T07:58:31.411Z,99932.28
2023-12-01T08:03:33.157Z,99943.28
2023-12-01T08:08:39.855Z,99947.34
2023-12-01T08:13:42.124Z,99958.47
2023-12-01T08:18:44.048Z,99956.72
2023-12-01T08:23:45.777Z,99965.81
2023-12-01T08:28:47.391Z,99969.22
2023-12-01T08:33:49.040Z,99964.31
2023-12-01T08:38:50.654Z,99962.28
2023-12-01T08:43:52.756Z,99971.75
2023-12-01T08:48:54.772Z,99975.41
2023-12-01T08:53:56.560Z,99976.72
2023-12-01T08:58:58.208Z,99977.38
2023-12-01T09:03:59.972Z,99979.72
2023-12-01T09:09:01.673Z,99974.94
2023-12-01T09:14:03.382Z,99983.47
2023-12-01T09:19:07.430Z,99993.31
2023-12-01T09:24:09.540Z,100001.44
2023-12-01T09:29:11.381Z,100014.31
2023-12-01T09:34:12.997Z,100007.75
2023-12-01T09:39:14.619Z,99996.53
2023-12-01T09:44:16.291Z,100005.81
2023-12-01T09:49:19.102Z,100004.97
2023-12-01T09:54:23.839Z,100016.41
2023-12-01T09:59:25.657Z,100024.38
2023-12-01T10:04:27.669Z,100016.03
2023-12-01T10:09:29.834Z,100021.09
2023-12-01T10:14:31.367Z,100028.75
2023-12-01T10:19:33.479Z,100017.44
2023-12-01T10:24:35.201Z,100017.81
2023-12-01T10:29:36.801Z,100020.75
2023-12-01T10:34:38.698Z,100022.19
2023-12-01T10:39:40.641Z,100036.56
2023-12-01T10:44:43.262Z,100021.34
2023-12-01T10:49:45.460Z,100025.13
2023-12-01T10:54:47.907Z,100008.59
2023-12-01T10:59:52.589Z,99999.25
2023-12-01T11:04:54.476Z,99982.03
2023-12-01T11:09:58.772Z,99983.56
2023-12-01T11:15:06.891Z,99994.13
2023-12-01T11:20:31.551Z,99998.91
2023-12-01T11:25:43.218Z,100000.59
2023-12-01T11:31:00.218Z,99994.31
2023-12-01T11:36:20.496Z,99995.81
2023-12-01T11:41:24.969Z,99993.00
2023-12-01T11:46:27.739Z,99995.09
2023-12-01T11:51:29.457Z,99992.47
2023-12-01T11:56:31.204Z,99991.41
2023-12-01T12:01:32.750Z,99999.50
2023-12-01T12:06:34.773Z,99992.41
2023-12-01T12:11:37.021Z,99994.47
2023-12-01T12:16:38.735Z,99999.13
2023-12-01T12:21:40.435Z,100002.22
2023-12-01T12:26:42.568Z,99994.22
2023-12-01T12:31:44.367Z,100002.91
2023-12-01T12:36:46.134Z,100006.91
2023-12-01T12:41:51.824Z,100000.09
2023-12-01T12:47:03.834Z,100014.56
2023-12-01T12:52:05.765Z,100007.66
2023-12-01T12:57:07.358Z,100017.25
2023-12-01T13:02:09.195Z,100013.03
2023-12-01T13:07:10.861Z,100013.25
2023-12-01T13:12:12.502Z,100019.47
2023-12-01T13:17:14.052Z,100020.97
2023-12-01T13:22:15.594Z,100013.56
2023-12-01T13:27:17.142Z,100007.66
2023-12-01T13:32:21.545Z,99998.91
2023-12-01T13:37:23.143Z,99997.06
2023-12-01T13:42:24.706Z,99996.31
2023-12-01T13:47:26.627Z,99993.09
2023-12-01T13:52:28.222Z,99991.91
2023-12-01T13:57:29.833Z,99997.00
2023-12-01T14:02:31.823Z,99998.63
2023-12-01T14:07:33.401Z,100006.19
2023-12-01T14:12:35.107Z,100001.56
2023-12-01T14:17:37.174Z,99998.63
2023-12-01T14:22:39.842Z,100005.13
2023-12-01T14:27:42.302Z,100008.78
2023-12-01T14:32:44.519Z,100010.56
2023-12-01T14:37:46.209Z,100016.66
2023-12-01T14:42:47.778Z,100013.25
2023-12-01T14:47:49.364Z,100015.31
2023-12-01T14:52:51.002Z,100015.69
2023-12-01T14:57:52.614Z,100007.63
2023-12-01T15:02:54.279Z,100021.31
2023-12-01T15:07:55.891Z,100025.72
2023-12-01T15:12:57.443Z,100019.91
2023-12-01T15:17:59.161Z,100034.09
2023-12-01T15:23:00.858Z,100026.72
2023-12-01T15:28:02.494Z,100028.88
2023-12-01T15:33:04.203Z,100036.16
2023-12-01T15:38:05.783Z,100023.38
2023-12-01T15:43:07.454Z,100028.94
2023-12-01T15:48:09.073Z,100032.94
2023-12-01T15:53:10.824Z,100035.25
2023-12-01T15:58:12.530Z,100025.94
2023-12-01T16:03:14.749Z,100030.22
2023-12-01T16:08:21.000Z,100033.50
2023-12-01T16:13:23.135Z,100033.84
2023-12-01T16:18:25.473Z,100041.00
2023-12-01T16:23:27.333Z,100038.41
2023-12-01T16:28:31.574Z,100041.56
2023-12-01T16:33:33.364Z,100050.41
2023-12-01T16:38:35.009Z,100045.50
2023-12-01T16:43:36.749Z,100054.66
2023-12-01T16:48:38.524Z,100061.19
2023-12-01T16:53:40.395Z,100066.09
2023-12-01T16:58:42.103Z,100059.88
2023-12-01T17:03:45.052Z,100078.06
2023-12-01T17:08:50.634Z,100085.41
2023-12-01T17:13:53.957Z,100079.53
2023-12-01T17:18:57.089Z,100092.59
2023-12-01T17:24:01.216Z,100086.63
2023-12-01T17:29:13.655Z,100084.59
2023-12-01T17:34:22.616Z,100089.91
2023-12-01T17:39:25.092Z,100088.00
2023-12-01T17:44:26.680Z,100093.03
2023-12-01T17:49:28.618Z,100089.78
2023-12-01T17:54:31.542Z,100095.31
2023-12-01T17:59:34.027Z,100096.56
2023-12-01T18:04:36.595Z,100094.00
2023-12-01T18:09:40.080Z,100089.94
2023-12-01T18:14:42.484Z,100099.00
2023-12-01T18:19:45.455Z,100095.75
2023-12-01T18:24:47.112Z,100095.78
2023-12-01T18:29:48.775Z,100096.59
2023-12-01T18:34:50.469Z,100103.25
2023-12-01T18:39:52.019Z,100099.81
2023-12-01T18:44:53.643Z,100102.16
2023-12-01T18:49:55.278Z,100113.59
2023-12-01T18:54:57.089Z,100131.66
2023-12-01T18:59:58.799Z,100137.38
2023-12-01T19:05:00.632Z,100139.81
2023-12-01T19:10:02.187Z,100141.03
2023-12-01T19:15:04.020Z,100150.38
2023-12-01T19:20:06.285Z,100157.88
2023-12-01T19:25:08.307Z,100150.00
2023-12-01T19:30:10.554Z,100143.75
2023-12-01T19:35:12.153Z,100152.44
2023-12-01T19:40:13.880Z,100152.31
2023-12-01T19:45:15.615Z,100151.38
2023-12-01T19:50:17.294Z,100142.78
2023-12-01T19:55:18.932Z,100147.41
2023-12-01T20:00:21.469Z,100157.19
2023-12-01T20:05:23.268Z,100159.84
2023-12-01T20:10:24.836Z,100163.91
2023-12-01T20:15:26.486Z,100161.50
2023-12-01T20:20:28.177Z,100167.06
2023-12-01T20:25:29.777Z,100163.47
2023-12-01T20:30:31.388Z,100166.63
2023-12-01T20:35:32.973Z,100164.75
2023-12-01T20:40:34.634Z,100170.97
2023-12-01T20:45:36.237Z,100164.78
2023-12-01T20:50:37.870Z,100164.34
2023-12-01T20:55:40.990Z,100176.84
2023-12-01T21:00:43.516Z,100173.84
2023-12-01T21:05:45.122Z,100179.25
2023-12-01T21:10:46.789Z,100181.84
2023-12-01T21:15:48.432Z,100190.38
2023-12-01T21:20:50.084Z,100187.38
2023-12-01T21:25:52.027Z,100190.91
2023-12-01T21:30:53.607Z,100192.28
2023-12-01T21:35:55.297Z,100200.66
2023-12-01T21:40:56.901Z,100202.34
2023-12-01T21:45:58.612Z,100195.88
2023-12-01T21:51:00.288Z,100200.09
2023-12-01T21:56:02.103Z,100204.28
2023-12-01T22:01:03.605Z,100207.44
2023-12-01T22:06:05.187Z,100207.81
2023-12-01T22:11:06.900Z,100206.88
2023-12-01T22:16:08.768Z,100201.38
2023-12-01T22:21:10.357Z,100201.41
2023-12-01T22:26:11.863Z,100198.00
2023-12-01T22:31:13.460Z,100207.81
2023-12-01T22:36:15.024Z,100203.34
2023-12-01T22:41:20.170Z,100207.56
2023-12-01T22:46:21.660Z,100204.59
2023-12-01T22:51:23.177Z,100214.03
2023-12-01T22:56:24.773Z,100214.78
2023-12-01T23:01:26.316Z,100218.25
2023-12-01T23:06:27.982Z,100222.47
2023-12-01T23:11:29.560Z,100228.31
2023-12-01T23:16:31.012Z,100232.78
2023-12-01T23:21:32.640Z,100230.88
2023-12-01T23:26:34.161Z,100228.69
2023-12-01T23:31:35.641Z,100236.84
2023-12-01T23:36:37.186Z,100237.28
2023-12-01T23:41:38.683Z,100241.50
2023-12-01T23:46:40.207Z,100239.69
2023-12-01T23:51:41.666Z,100244.53
2023-12-01T23:56:43.129Z,100233.34
